Nichiryu Maru — JG5632 — position and weather

sailwx.info

Track history (hours):
 
Tides and Currents Weather Stations Pressure Air Temp Water Temp Dewpoint Dewpoint Depression Visibility Wind Speed Wind Dir Waves Ship Positions

Nichiryu Maru

Last reported at 2014-Jul-24 01:33 UTC. Time now 2014-Jul-24 02:26 UTC.
Position N 34°53' E 139°28'.

Length 158 m; draft 6.5 m.

Type: Cargo ship. MMSI: 43100939.

Date/timePositionNaut miles runAvg speedWind from/ knotsBaromVisibWave heightAir tempDewpointWater temp
2014-Jul-24 01:33N 34°53' E 139°28'25919.2
2014-Jul-23 12:05N 33°11' E 134°41'205 4.5
2014-Jul-21 14:31N 34°27' E 138°30'5216.4
2014-Jul-21 11:22N 34°55' E 139°23'1416.8
2014-Jul-21 10:33N 35°03' E 139°36'1515.0
2014-Jul-21 09:34N 35°16' E 139°46'6 5.8
2014-Jul-21 08:27N 35°19' E 139°39'0 0.0
2014-Jul-21 07:33N 35°19' E 139°39'0 0.0
2014-Jul-21 06:33N 35°19' E 139°39'0 0.0
2014-Jul-21 05:33N 35°19' E 139°39'0 0.0
2014-Jul-21 04:33N 35°19' E 139°39'0 0.0
2014-Jul-21 03:33N 35°19' E 139°39'0 0.0
2014-Jul-21 02:33N 35°19' E 139°39'0 0.0
2014-Jul-21 01:33N 35°19' E 139°39'0 0.0
2014-Jul-21 00:33N 35°19' E 139°39'0 0.0
2014-Jul-20 23:34N 35°19' E 139°39'1 1.0
2014-Jul-20 22:33N 35°19' E 139°40'1 1.1
2014-Jul-20 21:34N 35°19' E 139°41'0 0.0
2014-Jul-20 20:31N 35°19' E 139°41'0 0.0
2014-Jul-20 19:34N 35°19' E 139°41'0 0.0
2014-Jul-20 18:31N 35°19' E 139°41'0 0.0
2014-Jul-20 17:34N 35°19' E 139°41'0 0.0
2014-Jul-20 16:34N 35°19' E 139°41'0 0.0
2014-Jul-20 15:34N 35°19' E 139°41'0 0.0
2014-Jul-20 14:34N 35°19' E 139°41'0 0.0
2014-Jul-20 13:31N 35°19' E 139°41'0 0.1
2014-Jul-20 12:34N 35°19' E 139°41'7 7.5
2014-Jul-20 11:33N 35°13' E 139°47'1918.8
2014-Jul-20 10:33N 34°58' E 139°34'233 4.7
2014-Jul-18 08:33N 34°35' E 134°52'1717.2
2014-Jul-18 07:33N 34°37' E 135°12'4 3.9
2014-Jul-18 06:30N 34°41' E 135°13'0 0.0
2014-Jul-18 05:24N 34°41' E 135°13'0 0.0
2014-Jul-18 04:33N 34°41' E 135°13'5 4.6
2014-Jul-18 03:33N 34°37' E 135°17'9 9.4
2014-Jul-18 02:33N 34°30' E 135°09'1818.1
2014-Jul-18 01:33N 34°14' E 134°59'17515.8
2014-Jul-17 14:29N 34°27' E 138°30'5518.8
2014-Jul-17 11:33N 34°57' E 139°26'1919.2
2014-Jul-17 10:34N 35°09' E 139°44'10 9.7
2014-Jul-17 09:33N 35°19' E 139°42'3 2.5
2014-Jul-17 08:32N 35°19' E 139°39'0 0.0
2014-Jul-17 07:32N 35°19' E 139°39'0 0.0
2014-Jul-17 06:32N 35°19' E 139°39'0 0.0
2014-Jul-17 05:32N 35°19' E 139°39'0 0.0
2014-Jul-17 04:32N 35°19' E 139°39'3 2.9
2014-Jul-17 03:33N 35°20' E 139°42'1111.1
2014-Jul-17 02:33N 35°09' E 139°46'1818.4
2014-Jul-17 01:33N 34°56' E 139°30'  
2014-Jul-14 15:22N 34°28' E 138°31'4616.2
2014-Jul-14 12:33N 34°52' E 139°19'1717.1
2014-Jul-14 11:34N 35°02' E 139°35'1515.3
2014-Jul-14 10:33N 35°15' E 139°46'7 7.2
2014-Jul-14 09:32N 35°19' E 139°39'0 0.0
2014-Jul-14 08:32N 35°19' E 139°39'0 0.0
2014-Jul-14 07:32N 35°19' E 139°39'0 0.0
2014-Jul-14 06:32N 35°19' E 139°39'0 0.0
2014-Jul-14 05:32N 35°19' E 139°39'0 0.0
2014-Jul-14 04:32N 35°19' E 139°39'0 0.0
2014-Jul-14 03:32N 35°19' E 139°39'0 0.0
2014-Jul-14 02:32N 35°19' E 139°39'  
Track history (hours):
 
Tides and Currents Weather Stations Pressure Air Temp Water Temp Dewpoint Dewpoint Depression Visibility Wind Speed Wind Dir Waves Ship Positions

Nichiryu Maru

Last reported at 2014-Jul-24 01:33 UTC. Time now 2014-Jul-24 02:26 UTC.
Position N 34°53' E 139°28'.

Length 158 m; draft 6.5 m.

Type: Cargo ship. MMSI: 43100939.

Date/timePositionNaut miles runAvg speedWind from/ knotsBaromVisibWave heightAir tempDewpointWater temp
2014-Jul-24 01:33N 34°53' E 139°28'25919.2
2014-Jul-23 12:05N 33°11' E 134°41'205 4.5
2014-Jul-21 14:31N 34°27' E 138°30'5216.4
2014-Jul-21 11:22N 34°55' E 139°23'1416.8
2014-Jul-21 10:33N 35°03' E 139°36'1515.0
2014-Jul-21 09:34N 35°16' E 139°46'6 5.8
2014-Jul-21 08:27N 35°19' E 139°39'0 0.0
2014-Jul-21 07:33N 35°19' E 139°39'0 0.0
2014-Jul-21 06:33N 35°19' E 139°39'0 0.0
2014-Jul-21 05:33N 35°19' E 139°39'0 0.0
2014-Jul-21 04:33N 35°19' E 139°39'0 0.0
2014-Jul-21 03:33N 35°19' E 139°39'0 0.0
2014-Jul-21 02:33N 35°19' E 139°39'0 0.0
2014-Jul-21 01:33N 35°19' E 139°39'0 0.0
2014-Jul-21 00:33N 35°19' E 139°39'0 0.0
2014-Jul-20 23:34N 35°19' E 139°39'1 1.0
2014-Jul-20 22:33N 35°19' E 139°40'1 1.1
2014-Jul-20 21:34N 35°19' E 139°41'0 0.0
2014-Jul-20 20:31N 35°19' E 139°41'0 0.0
2014-Jul-20 19:34N 35°19' E 139°41'0 0.0
2014-Jul-20 18:31N 35°19' E 139°41'0 0.0
2014-Jul-20 17:34N 35°19' E 139°41'0 0.0
2014-Jul-20 16:34N 35°19' E 139°41'0 0.0
2014-Jul-20 15:34N 35°19' E 139°41'0 0.0
2014-Jul-20 14:34N 35°19' E 139°41'0 0.0
2014-Jul-20 13:31N 35°19' E 139°41'0 0.1
2014-Jul-20 12:34N 35°19' E 139°41'7 7.5
2014-Jul-20 11:33N 35°13' E 139°47'1918.8
2014-Jul-20 10:33N 34°58' E 139°34'233 4.7
2014-Jul-18 08:33N 34°35' E 134°52'1717.2
2014-Jul-18 07:33N 34°37' E 135°12'4 3.9
2014-Jul-18 06:30N 34°41' E 135°13'0 0.0
2014-Jul-18 05:24N 34°41' E 135°13'0 0.0
2014-Jul-18 04:33N 34°41' E 135°13'5 4.6
2014-Jul-18 03:33N 34°37' E 135°17'9 9.4
2014-Jul-18 02:33N 34°30' E 135°09'1818.1
2014-Jul-18 01:33N 34°14' E 134°59'17515.8
2014-Jul-17 14:29N 34°27' E 138°30'5518.8
2014-Jul-17 11:33N 34°57' E 139°26'1919.2
2014-Jul-17 10:34N 35°09' E 139°44'10 9.7
2014-Jul-17 09:33N 35°19' E 139°42'3 2.5
2014-Jul-17 08:32N 35°19' E 139°39'0 0.0
2014-Jul-17 07:32N 35°19' E 139°39'0 0.0
2014-Jul-17 06:32N 35°19' E 139°39'0 0.0
2014-Jul-17 05:32N 35°19' E 139°39'0 0.0
2014-Jul-17 04:32N 35°19' E 139°39'3 2.9
2014-Jul-17 03:33N 35°20' E 139°42'1111.1
2014-Jul-17 02:33N 35°09' E 139°46'1818.4
2014-Jul-17 01:33N 34°56' E 139°30'  
2014-Jul-14 15:22N 34°28' E 138°31'4616.2
2014-Jul-14 12:33N 34°52' E 139°19'1717.1
2014-Jul-14 11:34N 35°02' E 139°35'1515.3
2014-Jul-14 10:33N 35°15' E 139°46'7 7.2
2014-Jul-14 09:32N 35°19' E 139°39'0 0.0
2014-Jul-14 08:32N 35°19' E 139°39'0 0.0
2014-Jul-14 07:32N 35°19' E 139°39'0 0.0
2014-Jul-14 06:32N 35°19' E 139°39'0 0.0
2014-Jul-14 05:32N 35°19' E 139°39'0 0.0
2014-Jul-14 04:32N 35°19' E 139°39'0 0.0
2014-Jul-14 03:32N 35°19' E 139°39'0 0.0
2014-Jul-14 02:32N 35°19' E 139°39'  

Dump ship's entire track history